Quick Links (Output Below):   Max & Min Temps   /   Climate Reports   /   Zone Forecasts
River Forecasts   /   Forestry Forecasts   /   Aviation Forecasts   /   Radars   /   Features

Terminal Aerodrome Forecast (Pine Bluff)

Pick a Site:
Arkadelphia | El Dorado | Fayetteville | Fort Smith | Harrison | Highfill | Hot Springs | Jonesboro
Little Rock | Monticello | Mountain Home | Pine Bluff | Texarkana
 Forecast 

KPBF 220525Z 2206/2306 00000KT P6SM SKC
      TEMPO 2210/2214 3SM BR
     FM221400 05009KT P6SM SKC
     FM230000 05003KT P6SM SCT250=


 Latest METARs (Observations) 
How to Decode METARs
06Z KPBF 220553Z AUTO 00000KT 10SM CLR 12/10 A3010 RMK AO2 SLP189
         T01220100 10211 20111 402610111 50001
         
05Z KPBF 220453Z AUTO 00000KT 10SM CLR 12/10 A3010 RMK AO2 SLP190
         T01220100
         
04Z KPBF 220353Z AUTO 00000KT 10SM CLR 17/09 A3010 RMK AO2 SLP191
         T01670094
         
03Z KPBF 220253Z AUTO 07004KT 10SM CLR 17/10 A3009 RMK AO2 SLP188
         T01670100 53017
         
02Z KPBF 220153Z AUTO 05003KT 10SM CLR 17/12 A3007 RMK AO2 SLP183
         T01670117
         
01Z KPBF 220053Z AUTO 36003KT 10SM CLR 17/13 A3006 RMK AO2 SLP178
         T01720128
         
00Z KPBF 212353Z AUTO 01003KT 10SM CLR 19/13 A3004 RMK AO2 SLP173
         T01940133 10261 20194 53002
         
***** Today's Observations (Above) *****


23Z KPBF 212253Z AUTO 33004KT 10SM CLR 23/12 A3003 RMK AO2 SLP168
         T02330122
         
22Z KPBF 212153Z AUTO 32008KT 10SM SCT055 26/12 A3003 RMK AO2 SLP169
         T02560122
         
21Z KPBF 212053Z AUTO 35004KT 10SM FEW050 26/12 A3004 RMK AO2 SLP169
         T02560122 56018
         
***** Yesterday's Observations (Above) *****


Back to Main Page
http://www.srh.noaa.gov/lzk/qfcst.php

USA.gov is the U.S. government's official web portal to all federal, state and local government web resources and services.